Time;durP1;ratioP1;P1;durP2;ratioP2;P2;SDS_P1;SDS_P2;PMS_P1;PMS_P2;Temp;Humidity;BMP_temperature;BMP_pressure;BME280_temperature;BME280_humidity;BME280_pressure;Samples;Min_cycle;Max_cycle;Signal;HPM_P1;HPM_P2
2023/01/18 00:00:59;;;;;;;20.10;12.40;;;2.10;99.90;;;;;;5065505;28;20455;-69
2023/01/18 00:03:32;;;;;;;22.20;12.50;;;2.10;99.90;;;;;;5065555;28;20542;-71
2023/01/18 00:06:00;;;;;;;20.03;12.47;;;2.10;99.90;;;;;;5066245;28;20443;-70
2023/01/18 00:08:28;;;;;;;22.20;13.30;;;2.10;99.90;;;;;;5065265;28;20465;-70
2023/01/18 00:11:01;;;;;;;19.10;12.00;;;2.10;99.90;;;;;;5065286;28;20474;-70
2023/01/18 00:13:28;;;;;;;15.80;11.20;;;2.00;99.90;;;;;;5066431;28;20537;-69
2023/01/18 00:16:00;;;;;;;23.17;10.80;;;2.00;99.90;;;;;;5066368;28;20451;-70
2023/01/18 00:18:28;;;;;;;18.30;12.10;;;2.00;99.90;;;;;;5065114;28;20475;-71
2023/01/18 00:20:59;;;;;;;20.17;11.17;;;1.90;99.90;;;;;;5064504;28;20486;-70
2023/01/18 00:23:26;;;;;;;18.80;12.20;;;1.90;99.90;;;;;;5063303;28;20444;-71
2023/01/18 00:25:52;;;;;;;20.50;12.23;;;1.90;99.90;;;;;;5064625;28;20916;-69
2023/01/18 00:28:21;;;;;;;24.17;13.63;;;1.90;99.90;;;;;;5065291;28;20504;-70
2023/01/18 00:30:48;;;;;;;27.23;12.43;;;1.90;99.90;;;;;;5065077;28;20467;-69
2023/01/18 00:33:15;;;;;;;18.57;11.23;;;1.80;99.90;;;;;;5065873;28;20487;-70
2023/01/18 00:35:43;;;;;;;17.83;11.67;;;1.80;99.90;;;;;;5065729;28;20518;-70
2023/01/18 00:38:11;;;;;;;20.03;12.30;;;1.80;99.90;;;;;;5066098;28;20551;-70
2023/01/18 00:40:38;;;;;;;23.00;11.47;;;1.80;99.90;;;;;;5065443;28;20455;-69
2023/01/18 00:45:49;;;;;;;17.30;12.20;;;1.80;99.90;;;;;;5065895;28;20450;-69
2023/01/18 00:48:16;;;;;;;19.27;13.80;;;1.70;99.90;;;;;;5065470;28;20455;-70
2023/01/18 00:50:44;;;;;;;21.80;14.53;;;1.70;99.90;;;;;;5064838;28;20546;-70
2023/01/18 00:53:11;;;;;;;29.10;16.53;;;1.70;99.90;;;;;;5064807;28;20479;-69
2023/01/18 00:55:38;;;;;;;23.00;16.30;;;1.70;99.90;;;;;;5064274;28;20546;-69
2023/01/18 00:58:05;;;;;;;31.53;18.20;;;1.60;99.90;;;;;;5065055;28;20483;-70
2023/01/18 01:00:32;;;;;;;30.63;16.60;;;1.60;99.90;;;;;;5064402;28;20519;-70
2023/01/18 01:02:59;;;;;;;23.17;15.50;;;1.60;99.90;;;;;;5064647;28;20521;-70
2023/01/18 01:08:16;;;;;;;23.13;15.20;;;1.50;99.90;;;;;;5065982;28;20442;-69
2023/01/18 01:10:44;;;;;;;20.87;14.00;;;1.50;99.90;;;;;;5065827;28;20443;-70
2023/01/18 01:26:55;;;;;;;13.93;12.43;;;1.40;99.90;;;;;;5066115;28;20426;-70
2023/01/18 01:29:22;;;;;;;16.93;13.17;;;1.40;99.90;;;;;;5066589;28;20593;-71
2023/01/18 01:31:49;;;;;;;17.20;12.50;;;1.40;99.90;;;;;;5066171;28;20486;-70
2023/01/18 01:34:16;;;;;;;15.30;12.20;;;1.30;99.90;;;;;;5065084;28;20538;-70
2023/01/18 01:36:43;;;;;;;15.00;11.83;;;1.30;99.90;;;;;;5064979;28;20497;-70
2023/01/18 01:39:11;;;;;;;16.20;11.77;;;1.30;99.90;;;;;;5065862;28;20479;-71
2023/01/18 01:41:38;;;;;;;14.23;10.90;;;1.40;99.90;;;;;;5065869;28;20459;-70
2023/01/18 01:44:38;;;;;;;16.93;12.27;;;1.40;99.90;;;;;;5066125;28;20519;-70
2023/01/18 01:47:10;;;;;;;15.40;10.87;;;1.40;99.90;;;;;;5066270;28;20474;-69
2023/01/18 01:49:41;;;;;;;13.30;11.90;;;1.40;99.90;;;;;;5065847;28;20432;-70
2023/01/18 01:52:09;;;;;;;15.27;11.87;;;1.40;99.90;;;;;;5065470;28;20879;-69
2023/01/18 01:54:42;;;;;;;15.80;12.10;;;1.50;99.90;;;;;;5064672;28;20508;-69
2023/01/18 01:57:18;;;;;;;16.10;12.30;;;1.50;99.90;;;;;;5064503;28;20507;-69
2023/01/18 01:59:48;;;;;;;14.00;12.00;;;1.50;99.90;;;;;;5064246;28;20872;-70
2023/01/18 02:02:16;;;;;;;16.37;11.10;;;1.50;99.90;;;;;;5064371;28;20520;-70
2023/01/18 02:04:45;;;;;;;16.80;10.30;;;1.50;99.90;;;;;;5064461;28;20550;-69
2023/01/18 02:07:12;;;;;;;12.23;10.03;;;1.60;99.90;;;;;;5063913;28;20481;-70
2023/01/18 02:09:41;;;;;;;14.77;9.90;;;1.60;99.90;;;;;;5064433;28;20455;-68
2023/01/18 02:12:08;;;;;;;18.57;12.13;;;1.70;99.90;;;;;;5066088;28;20593;-69
2023/01/18 02:14:35;;;;;;;14.13;10.80;;;1.70;99.90;;;;;;5065723;28;21021;-69
2023/01/18 02:17:18;;;;;;;15.30;10.97;;;1.70;99.90;;;;;;5064365;28;20547;-70
2023/01/18 02:20:18;;;;;;;15.47;10.63;;;1.70;99.90;;;;;;5064715;28;20519;-69
2023/01/18 02:23:20;;;;;;;16.37;9.70;;;1.70;99.90;;;;;;5064728;28;20482;-70
2023/01/18 02:26:23;;;;;;;17.30;10.90;;;1.70;99.90;;;;;;5049190;28;20486;-69
2023/01/18 02:29:00;;;;;;;12.17;10.00;;;1.80;99.90;;;;;;5064627;28;20450;-71
2023/01/18 02:31:34;;;;;;;16.10;10.60;;;1.70;99.90;;;;;;5064604;28;20466;-69
2023/01/18 02:34:06;;;;;;;14.40;10.03;;;1.70;99.90;;;;;;5063879;28;20500;-70
2023/01/18 02:36:44;;;;;;;13.30;9.87;;;1.70;99.90;;;;;;5064357;28;20455;-70
2023/01/18 02:39:22;;;;;;;18.73;10.53;;;1.80;99.90;;;;;;5064204;28;20538;-70
2023/01/18 02:47:29;;;;;;;16.53;11.53;;;1.80;99.90;;;;;;5066461;28;20431;-70
2023/01/18 02:49:57;;;;;;;13.60;9.87;;;1.90;99.90;;;;;;5065713;28;20515;-71
2023/01/18 02:52:40;;;;;;;16.23;11.37;;;1.80;99.90;;;;;;5064252;28;20485;-70
2023/01/18 02:55:10;;;;;;;16.57;11.20;;;1.80;99.90;;;;;;5064598;28;20469;-70
2023/01/18 02:57:37;;;;;;;16.10;10.73;;;1.80;99.90;;;;;;5066261;28;20471;-70
2023/01/18 03:00:10;;;;;;;15.00;10.60;;;1.80;99.90;;;;;;5065086;28;20561;-69
2023/01/18 03:02:40;;;;;;;13.80;10.20;;;1.80;99.90;;;;;;5064161;28;20444;-69
2023/01/18 03:05:09;;;;;;;17.63;10.87;;;1.80;99.90;;;;;;5064638;28;20499;-70
2023/01/18 03:07:43;;;;;;;16.40;9.87;;;1.80;99.90;;;;;;5065769;28;20451;-70
2023/01/18 03:10:12;;;;;;;16.30;10.57;;;1.80;99.90;;;;;;5066349;28;20570;-70
2023/01/18 03:12:48;;;;;;;16.73;10.63;;;1.90;99.90;;;;;;5066397;28;20479;-69
2023/01/18 03:15:22;;;;;;;14.43;9.97;;;1.80;99.90;;;;;;5064991;28;20962;-70
2023/01/18 03:17:52;;;;;;;15.07;10.10;;;1.90;99.90;;;;;;5064093;28;20449;-69
2023/01/18 03:20:24;;;;;;;15.27;9.23;;;1.90;99.90;;;;;;5064633;28;20489;-69
2023/01/18 03:25:44;;;;;;;18.20;10.30;;;1.90;99.90;;;;;;5064627;28;20458;-70
2023/01/18 03:33:55;;;;;;;14.13;9.67;;;1.90;99.90;;;;;;5062775;28;20427;-70
2023/01/18 03:36:26;;;;;;;15.77;10.63;;;1.90;99.90;;;;;;5063447;28;20778;-70
2023/01/18 03:38:56;;;;;;;19.73;10.43;;;1.90;99.90;;;;;;5063610;28;20794;-70
2023/01/18 03:41:27;;;;;;;12.43;10.20;;;1.90;99.90;;;;;;5064094;28;20459;-70
2023/01/18 03:43:57;;;;;;;15.10;10.00;;;1.90;99.90;;;;;;5064179;28;20567;-70
2023/01/18 03:46:29;;;;;;;14.20;10.40;;;1.80;99.90;;;;;;5064445;28;20836;-70
2023/01/18 03:48:56;;;;;;;14.80;9.60;;;1.80;99.90;;;;;;5063691;28;20436;-70
2023/01/18 03:51:30;;;;;;;11.87;8.50;;;1.90;99.90;;;;;;5063416;28;20542;-69
2023/01/18 03:54:04;;;;;;;10.93;8.30;;;1.80;99.90;;;;;;5063732;28;20446;-70
2023/01/18 03:56:37;;;;;;;10.53;8.30;;;1.80;99.90;;;;;;5062907;28;20763;-69
2023/01/18 03:59:05;;;;;;;13.60;9.30;;;1.90;99.90;;;;;;5066631;28;20467;-70
2023/01/18 04:01:33;;;;;;;9.03;7.93;;;1.90;99.90;;;;;;5067476;28;20534;-69
2023/01/18 04:04:00;;;;;;;11.90;7.63;;;1.90;99.90;;;;;;5066322;28;20534;-70
2023/01/18 04:06:28;;;;;;;10.90;7.40;;;1.90;99.90;;;;;;5067509;28;20954;-69
2023/01/18 04:08:54;;;;;;;8.40;7.00;;;1.90;99.90;;;;;;5066844;28;20447;-69
2023/01/18 04:11:21;;;;;;;11.20;7.60;;;1.90;99.90;;;;;;5066291;28;20466;-70
2023/01/18 04:13:48;;;;;;;9.80;7.17;;;1.90;99.90;;;;;;5065395;28;20550;-69
2023/01/18 04:16:15;;;;;;;10.63;7.73;;;1.90;99.90;;;;;;5065644;28;20459;-70
2023/01/18 04:18:43;;;;;;;10.10;7.67;;;1.90;99.90;;;;;;5065839;28;20538;-69
2023/01/18 04:21:10;;;;;;;12.67;8.07;;;1.90;99.90;;;;;;5065558;28;20459;-69
2023/01/18 04:23:37;;;;;;;10.87;7.83;;;1.90;99.90;;;;;;5065860;28;20466;-70
2023/01/18 04:26:04;;;;;;;9.87;8.00;;;1.90;99.90;;;;;;5065681;28;20530;-70
2023/01/18 04:28:33;;;;;;;7.63;6.70;;;1.80;99.90;;;;;;5065274;28;20541;-70
2023/01/18 04:31:00;;;;;;;11.67;8.00;;;1.90;99.90;;;;;;5065449;28;20509;-70
2023/01/18 04:33:27;;;;;;;8.10;6.50;;;1.90;99.90;;;;;;5065490;28;20465;-70
2023/01/18 04:35:55;;;;;;;9.83;7.17;;;1.80;99.90;;;;;;5065657;28;20522;-70
2023/01/18 04:38:23;;;;;;;11.63;7.67;;;1.80;99.90;;;;;;5065705;28;20481;-69
2023/01/18 04:40:49;;;;;;;9.17;7.03;;;1.80;99.90;;;;;;5064519;28;20479;-68
2023/01/18 04:43:16;;;;;;;12.67;7.63;;;1.80;99.90;;;;;;5064998;28;20479;-69
2023/01/18 04:45:51;;;;;;;10.37;7.40;;;1.80;99.90;;;;;;5063786;28;20534;-69
2023/01/18 04:48:18;;;;;;;8.43;7.00;;;1.80;99.90;;;;;;5064753;28;20438;-69
2023/01/18 04:50:47;;;;;;;10.73;7.33;;;1.80;99.90;;;;;;5064287;28;20479;-70
2023/01/18 04:53:15;;;;;;;8.73;7.33;;;1.80;99.90;;;;;;5064437;28;20462;-70
2023/01/18 04:55:42;;;;;;;10.27;7.63;;;1.80;99.90;;;;;;5064429;28;20451;-70
2023/01/18 04:58:09;;;;;;;12.50;7.80;;;1.70;99.90;;;;;;5066623;28;20487;-70
2023/01/18 05:00:38;;;;;;;12.60;6.80;;;1.80;99.90;;;;;;5063703;28;20562;-70
2023/01/18 05:03:05;;;;;;;10.50;8.00;;;1.80;99.90;;;;;;5064043;28;20493;-70
2023/01/18 05:05:32;;;;;;;10.60;7.97;;;1.70;99.90;;;;;;5064725;28;20477;-70
2023/01/18 05:07:59;;;;;;;7.03;6.00;;;1.80;99.90;;;;;;5064938;28;20505;-70
2023/01/18 05:10:27;;;;;;;10.50;7.00;;;1.80;99.90;;;;;;5064305;28;20455;-70
2023/01/18 05:12:54;;;;;;;10.30;6.43;;;1.80;99.90;;;;;;5067444;28;20511;-69
2023/01/18 05:15:21;;;;;;;9.23;7.37;;;1.80;99.90;;;;;;5067563;28;20846;-70
2023/01/18 05:17:48;;;;;;;11.83;7.73;;;1.80;99.90;;;;;;5066799;28;20478;-70
2023/01/18 05:20:15;;;;;;;13.43;7.10;;;1.80;99.90;;;;;;5066010;28;20475;-70
2023/01/18 05:22:42;;;;;;;9.60;7.43;;;1.80;99.90;;;;;;5062655;28;20542;-69
2023/01/18 05:25:09;;;;;;;10.03;6.93;;;1.90;99.90;;;;;;5062729;28;20815;-69
2023/01/18 05:27:37;;;;;;;13.17;7.30;;;1.80;99.90;;;;;;5063032;28;20466;-69
2023/01/18 05:30:05;;;;;;;8.63;6.90;;;1.90;99.90;;;;;;5062678;28;20466;-69
2023/01/18 05:32:32;;;;;;;8.10;6.80;;;1.80;99.90;;;;;;5063112;28;20501;-70
2023/01/18 05:34:59;;;;;;;9.30;7.43;;;1.80;99.90;;;;;;5063649;28;20542;-70
2023/01/18 05:37:26;;;;;;;13.50;7.63;;;1.80;99.90;;;;;;5063705;28;20475;-69
2023/01/18 05:39:53;;;;;;;12.47;8.20;;;1.80;99.90;;;;;;5064380;28;20485;-70
2023/01/18 05:42:20;;;;;;;9.17;8.20;;;1.80;99.90;;;;;;5064186;28;20891;-70
2023/01/18 05:44:48;;;;;;;11.90;9.17;;;1.80;99.90;;;;;;5062724;28;20509;-69
2023/01/18 05:47:15;;;;;;;12.70;8.90;;;1.80;99.90;;;;;;5062417;28;20541;-70
2023/01/18 05:49:42;;;;;;;8.17;7.27;;;1.80;99.90;;;;;;5063843;28;20530;-69
2023/01/18 05:52:08;;;;;;;15.80;9.13;;;1.80;99.90;;;;;;5064465;28;20479;-69
2023/01/18 05:54:35;;;;;;;13.37;8.90;;;1.80;99.90;;;;;;5066031;28;20456;-69
2023/01/18 05:57:02;;;;;;;9.97;8.13;;;1.80;99.90;;;;;;5061928;28;20768;-70
2023/01/18 05:59:29;;;;;;;48.40;29.70;;;1.70;99.90;;;;;;5061337;28;20489;-70
2023/01/18 06:01:57;;;;;;;26.70;17.17;;;1.70;99.90;;;;;;5062182;28;20526;-69
2023/01/18 06:04:24;;;;;;;11.20;8.07;;;1.70;99.90;;;;;;5062921;28;20459;-69
2023/01/18 06:06:51;;;;;;;13.33;9.03;;;1.70;99.90;;;;;;5062651;28;20543;-69
2023/01/18 06:09:17;;;;;;;10.20;7.67;;;1.70;99.90;;;;;;5062096;28;20912;-70
2023/01/18 06:11:44;;;;;;;11.77;7.43;;;1.70;99.90;;;;;;5062041;28;20466;-69
2023/01/18 06:14:11;;;;;;;14.70;8.50;;;1.60;99.90;;;;;;5061638;28;20542;-69
2023/01/18 06:16:38;;;;;;;10.10;6.73;;;1.60;99.90;;;;;;5061433;28;20967;-70
2023/01/18 06:19:06;;;;;;;8.93;7.10;;;1.60;99.90;;;;;;5060569;28;20459;-69
2023/01/18 06:21:33;;;;;;;10.83;6.83;;;1.60;99.90;;;;;;5060906;28;20459;-69
2023/01/18 06:24:00;;;;;;;14.73;7.70;;;1.60;99.90;;;;;;5061013;28;20542;-70
2023/01/18 06:26:29;;;;;;;12.23;7.23;;;1.60;99.90;;;;;;5062240;28;20455;-69
2023/01/18 06:28:56;;;;;;;11.80;7.90;;;1.60;99.90;;;;;;5062146;28;20455;-70
2023/01/18 06:31:23;;;;;;;8.23;6.83;;;1.60;99.90;;;;;;5062230;28;20459;-69
2023/01/18 06:33:50;;;;;;;12.03;6.77;;;1.60;99.90;;;;;;5060791;28;20479;-70
2023/01/18 06:36:18;;;;;;;8.60;6.00;;;1.70;99.90;;;;;;5061334;28;20490;-69
2023/01/18 06:38:45;;;;;;;8.43;6.17;;;1.70;99.90;;;;;;5060997;28;20459;-70
2023/01/18 06:41:12;;;;;;;10.83;7.13;;;1.80;99.90;;;;;;5060450;28;20509;-69
2023/01/18 06:43:38;;;;;;;13.70;8.80;;;1.80;99.90;;;;;;5060864;28;21036;-70
2023/01/18 06:46:08;;;;;;;10.27;7.33;;;1.80;99.90;;;;;;5060514;28;20459;-69
2023/01/18 06:48:35;;;;;;;12.90;6.23;;;1.80;99.90;;;;;;5061049;28;20454;-70
2023/01/18 06:51:02;;;;;;;6.83;6.20;;;1.80;99.90;;;;;;5061533;28;20531;-70
2023/01/18 06:53:30;;;;;;;9.20;5.67;;;1.80;99.90;;;;;;5061017;28;20457;-69
2023/01/18 06:55:58;;;;;;;8.60;5.63;;;1.80;99.90;;;;;;5061361;28;20455;-68
2023/01/18 06:58:27;;;;;;;7.40;5.80;;;1.80;99.90;;;;;;5061159;28;20518;-69
2023/01/18 07:00:57;;;;;;;6.80;5.07;;;1.80;99.90;;;;;;5062460;28;20483;-70
2023/01/18 07:03:25;;;;;;;9.37;6.37;;;1.80;99.90;;;;;;5063498;28;20482;-69
2023/01/18 07:05:53;;;;;;;10.67;6.10;;;1.80;99.90;;;;;;5062366;28;20522;-69
2023/01/18 07:08:20;;;;;;;9.70;5.23;;;1.80;99.90;;;;;;5062812;28;20546;-69
2023/01/18 07:10:48;;;;;;;10.07;5.40;;;1.80;99.90;;;;;;5061766;28;20451;-69
2023/01/18 07:13:15;;;;;;;10.70;6.23;;;1.80;99.90;;;;;;5062216;28;20886;-69
2023/01/18 07:15:42;;;;;;;10.00;5.83;;;1.80;99.90;;;;;;5060776;28;20511;-70
2023/01/18 07:18:11;;;;;;;10.77;6.00;;;1.80;99.90;;;;;;5060938;28;20466;-70
2023/01/18 07:20:38;;;;;;;11.23;5.80;;;1.80;99.90;;;;;;5060181;28;20483;-69
2023/01/18 07:23:05;;;;;;;8.93;5.63;;;1.70;99.90;;;;;;5060660;28;20562;-71
2023/01/18 07:25:32;;;;;;;6.40;5.13;;;1.70;99.90;;;;;;5060158;28;20455;-70
2023/01/18 07:28:00;;;;;;;6.93;4.40;;;1.70;99.90;;;;;;5060025;28;20944;-70
2023/01/18 07:30:27;;;;;;;5.60;4.83;;;1.70;99.90;;;;;;5059388;28;20535;-70
2023/01/18 07:32:53;;;;;;;8.30;6.33;;;1.80;99.90;;;;;;5060486;28;21010;-70
2023/01/18 07:35:21;;;;;;;7.50;5.20;;;1.80;99.90;;;;;;5063050;28;20522;-70
2023/01/18 07:37:51;;;;;;;9.80;5.80;;;1.80;99.90;;;;;;5063082;28;20502;-70
2023/01/18 07:40:19;;;;;;;13.93;6.60;;;1.90;99.90;;;;;;5063684;28;20493;-69
2023/01/18 07:42:46;;;;;;;7.70;5.40;;;1.90;99.90;;;;;;5063237;28;20486;-70
2023/01/18 07:45:14;;;;;;;5.93;4.40;;;1.90;99.90;;;;;;5062831;28;20497;-71
2023/01/18 07:47:42;;;;;;;5.20;4.00;;;1.90;99.90;;;;;;5063232;28;20474;-69
2023/01/18 07:50:10;;;;;;;10.50;4.30;;;2.00;99.90;;;;;;5065563;28;20446;-71
2023/01/18 07:52:37;;;;;;;6.00;4.40;;;2.00;99.90;;;;;;5067118;28;20554;-71
2023/01/18 07:55:04;;;;;;;5.83;4.57;;;2.00;99.90;;;;;;5064742;28;20510;-71
2023/01/18 07:57:31;;;;;;;7.97;5.70;;;2.00;99.90;;;;;;5065351;28;20462;-70
2023/01/18 07:59:58;;;;;;;9.20;6.57;;;2.10;99.90;;;;;;5065210;28;20483;-70
2023/01/18 08:02:26;;;;;;;10.67;6.57;;;2.10;99.90;;;;;;5063490;28;20482;-69
2023/01/18 08:04:53;;;;;;;9.10;6.53;;;2.10;99.90;;;;;;5062831;28;20491;-70
2023/01/18 08:07:20;;;;;;;7.80;5.93;;;2.10;99.90;;;;;;5063210;28;20466;-70
2023/01/18 08:09:46;;;;;;;10.77;6.13;;;2.10;99.90;;;;;;5066927;28;20490;-71
2023/01/18 08:12:16;;;;;;;10.13;6.30;;;2.20;99.90;;;;;;5065014;28;20490;-71
2023/01/18 08:14:43;;;;;;;11.60;7.47;;;2.20;99.90;;;;;;5065764;28;20457;-70
2023/01/18 08:17:10;;;;;;;10.17;5.70;;;2.20;99.90;;;;;;5066021;28;20524;-70
2023/01/18 08:19:38;;;;;;;12.13;5.17;;;2.20;99.90;;;;;;5065789;28;20457;-71
2023/01/18 08:22:05;;;;;;;9.90;6.77;;;2.20;99.90;;;;;;5066282;28;20459;-71
2023/01/18 08:24:32;;;;;;;10.83;7.17;;;2.30;99.90;;;;;;5065225;28;20570;-70
2023/01/18 08:26:59;;;;;;;8.43;6.80;;;2.30;99.90;;;;;;5064897;28;20459;-71
2023/01/18 08:29:26;;;;;;;12.10;6.13;;;2.40;99.90;;;;;;5063785;28;20454;-70
2023/01/18 08:31:53;;;;;;;19.17;9.57;;;2.40;99.90;;;;;;5064185;28;20854;-70
2023/01/18 08:34:20;;;;;;;13.40;7.80;;;2.50;99.90;;;;;;5064649;28;20455;-70
2023/01/18 08:36:49;;;;;;;16.00;7.80;;;2.50;99.90;;;;;;5065765;28;20538;-70
2023/01/18 08:39:16;;;;;;;20.70;11.63;;;2.60;99.90;;;;;;5067691;28;20474;-70
2023/01/18 08:41:45;;;;;;;12.17;7.43;;;2.60;99.90;;;;;;5066739;28;20573;-70
2023/01/18 08:44:12;;;;;;;16.03;8.40;;;2.60;99.90;;;;;;5066628;28;20440;-70
2023/01/18 08:46:39;;;;;;;18.63;7.60;;;2.70;99.90;;;;;;5066551;28;20498;-70
2023/01/18 08:49:06;;;;;;;12.27;7.37;;;2.70;99.90;;;;;;5065590;28;20519;-70
2023/01/18 08:51:33;;;;;;;16.27;8.70;;;2.70;99.90;;;;;;5066602;28;20765;-70
2023/01/18 08:54:01;;;;;;;11.00;7.07;;;2.70;99.90;;;;;;5085283;28;20863;-71
2023/01/18 08:56:28;;;;;;;11.73;8.00;;;2.70;99.90;;;;;;5075822;28;20455;-69
2023/01/18 08:58:56;;;;;;;11.20;8.60;;;2.80;99.90;;;;;;5064733;28;20846;-70
2023/01/18 09:01:23;;;;;;;19.00;9.40;;;2.80;99.90;;;;;;5064914;28;20511;-71
2023/01/18 09:03:50;;;;;;;17.23;9.07;;;2.90;99.90;;;;;;5063521;28;20462;-72
2023/01/18 09:06:17;;;;;;;12.80;7.77;;;2.90;99.90;;;;;;5065704;28;20525;-71
2023/01/18 09:08:46;;;;;;;13.83;6.97;;;2.90;99.90;;;;;;5063687;28;20472;-71
2023/01/18 09:11:16;;;;;;;8.53;5.63;;;2.90;99.90;;;;;;5063527;28;20455;-70
2023/01/18 09:13:43;;;;;;;11.10;6.50;;;3.00;99.90;;;;;;5063607;28;20455;-70
2023/01/18 09:16:11;;;;;;;14.47;7.37;;;3.00;99.90;;;;;;5062677;28;20944;-70
2023/01/18 09:18:38;;;;;;;11.53;7.63;;;3.00;99.90;;;;;;5063057;28;20866;-70
2023/01/18 09:21:07;;;;;;;16.40;6.73;;;3.00;99.90;;;;;;5062618;28;20490;-70
2023/01/18 09:23:34;;;;;;;8.50;5.97;;;3.00;99.90;;;;;;5062961;28;20455;-70
2023/01/18 09:26:02;;;;;;;10.33;6.30;;;3.10;99.90;;;;;;5061359;28;20538;-71
2023/01/18 09:28:31;;;;;;;8.93;7.30;;;3.10;99.90;;;;;;5062575;28;20455;-71
2023/01/18 09:31:00;;;;;;;8.10;5.80;;;3.10;99.90;;;;;;5063022;28;20471;-70
2023/01/18 09:33:28;;;;;;;11.13;6.80;;;3.10;99.90;;;;;;5063209;28;20489;-70
2023/01/18 09:35:55;;;;;;;16.20;9.43;;;3.10;99.90;;;;;;5063780;28;20467;-70
2023/01/18 09:38:22;;;;;;;13.67;7.40;;;3.20;99.90;;;;;;5062740;28;20485;-71
2023/01/18 09:40:52;;;;;;;10.87;6.70;;;3.20;99.90;;;;;;5062859;28;20479;-70
2023/01/18 09:43:27;;;;;;;8.80;6.33;;;3.20;99.90;;;;;;5063471;28;20522;-69
2023/01/18 09:45:56;;;;;;;14.53;6.90;;;3.30;99.90;;;;;;5063505;28;20439;-69
2023/01/18 09:48:31;;;;;;;23.20;8.77;;;3.30;99.90;;;;;;5061082;28;20451;-69
2023/01/18 09:51:01;;;;;;;11.47;6.10;;;3.40;99.90;;;;;;5061574;28;20514;-70
2023/01/18 09:53:42;;;;;;;8.80;5.90;;;3.40;99.90;;;;;;5061693;28;20461;-70
2023/01/18 09:56:16;;;;;;;14.53;6.37;;;3.50;99.90;;;;;;5062967;28;20439;-70
2023/01/18 09:58:55;;;;;;;15.33;7.80;;;3.50;99.90;;;;;;5062024;28;20450;-69
2023/01/18 10:01:26;;;;;;;15.77;7.07;;;3.60;99.90;;;;;;5062062;28;20459;-70
2023/01/18 10:03:58;;;;;;;9.33;5.90;;;3.60;99.90;;;;;;5063453;28;20475;-71
2023/01/18 10:06:29;;;;;;;12.77;6.20;;;3.70;99.90;;;;;;5062899;28;20511;-69
2023/01/18 10:09:03;;;;;;;7.47;6.20;;;3.80;99.90;;;;;;5064186;28;20507;-69
2023/01/18 10:11:42;;;;;;;12.07;4.93;;;3.80;99.90;;;;;;5063057;28;20436;-70
2023/01/18 10:14:17;;;;;;;9.10;5.37;;;3.90;99.90;;;;;;5062446;28;20892;-70
2023/01/18 10:16:52;;;;;;;6.80;4.87;;;4.00;99.90;;;;;;5062450;28;20438;-69
2023/01/18 10:19:24;;;;;;;9.87;6.13;;;4.00;99.90;;;;;;5062571;28;20555;-69
2023/01/18 10:21:59;;;;;;;10.13;6.27;;;4.10;99.90;;;;;;5062097;28;20487;-69
2023/01/18 10:24:44;;;;;;;9.40;6.10;;;4.20;99.90;;;;;;5062761;28;20478;-70
2023/01/18 10:27:30;;;;;;;5.97;5.07;;;4.30;99.90;;;;;;5061707;28;20632;-71
2023/01/18 10:30:20;;;;;;;8.20;4.80;;;4.30;99.90;;;;;;5061955;28;20900;-70
2023/01/18 10:32:54;;;;;;;14.23;8.00;;;4.30;99.90;;;;;;5062193;28;20443;-69
2023/01/18 10:35:28;;;;;;;14.60;9.53;;;4.40;99.90;;;;;;5061585;28;20478;-69
2023/01/18 10:37:58;;;;;;;12.83;6.80;;;4.50;99.90;;;;;;5061875;28;20820;-70
2023/01/18 10:40:25;;;;;;;9.70;6.43;;;4.50;99.90;;;;;;5061866;28;20542;-71
2023/01/18 10:42:55;;;;;;;8.77;5.67;;;4.50;99.90;;;;;;5062294;28;20490;-69
2023/01/18 10:45:25;;;;;;;10.83;7.10;;;4.60;99.90;;;;;;5062859;28;20451;-70
2023/01/18 10:47:54;;;;;;;11.57;6.03;;;4.60;99.90;;;;;;5063014;28;20486;-70
2023/01/18 10:50:32;;;;;;;8.70;6.13;;;4.70;99.90;;;;;;5064201;28;20498;-71
2023/01/18 10:53:20;;;;;;;7.73;4.50;;;4.70;99.90;;;;;;5063773;28;20534;-69
2023/01/18 10:55:53;;;;;;;5.53;3.67;;;4.70;99.90;;;;;;5063437;28;20526;-70
2023/01/18 10:58:26;;;;;;;6.30;4.40;;;4.60;99.90;;;;;;5064228;28;20447;-71
2023/01/18 11:00:54;;;;;;;6.53;4.70;;;4.60;99.90;;;;;;5064102;28;20471;-70
2023/01/18 11:03:25;;;;;;;6.83;5.00;;;4.50;99.90;;;;;;5064160;28;20471;-70
2023/01/18 11:05:52;;;;;;;4.80;4.30;;;4.40;99.90;;;;;;5062766;28;20451;-69
2023/01/18 11:08:24;;;;;;;10.13;5.27;;;4.40;99.90;;;;;;5063104;28;20483;-70
2023/01/18 11:11:02;;;;;;;7.17;4.70;;;4.30;99.90;;;;;;5063557;28;20455;-69
2023/01/18 11:13:33;;;;;;;7.47;5.70;;;4.30;99.90;;;;;;5062493;28;20455;-70
2023/01/18 11:16:16;;;;;;;10.93;6.10;;;4.30;99.90;;;;;;5061806;28;20506;-70
2023/01/18 11:19:02;;;;;;;7.43;5.60;;;4.30;99.90;;;;;;5061004;28;20446;-70
2023/01/18 11:21:39;;;;;;;7.50;6.23;;;4.20;99.90;;;;;;5062279;28;20550;-71
2023/01/18 11:24:08;;;;;;;9.27;5.60;;;4.20;99.90;;;;;;5062850;28;20501;-70
2023/01/18 11:26:49;;;;;;;8.70;6.30;;;4.10;99.90;;;;;;5063082;28;20459;-69
2023/01/18 11:29:16;;;;;;;9.33;5.90;;;4.10;99.90;;;;;;5063757;28;20494;-70
2023/01/18 11:31:45;;;;;;;14.17;7.00;;;4.20;99.90;;;;;;5062438;28;20451;-69
2023/01/18 11:34:22;;;;;;;9.20;6.77;;;4.20;99.90;;;;;;5063053;28;20506;-70
2023/01/18 11:36:49;;;;;;;7.80;5.70;;;4.20;99.90;;;;;;5062758;28;20515;-70
2023/01/18 11:39:24;;;;;;;12.40;6.30;;;4.30;99.90;;;;;;5062964;28;20526;-71
2023/01/18 11:42:09;;;;;;;6.20;5.23;;;4.40;99.90;;;;;;5062208;28;20553;-71
2023/01/18 11:44:38;;;;;;;6.10;4.80;;;4.40;99.90;;;;;;5061994;28;20459;-70
2023/01/18 11:47:09;;;;;;;5.60;4.80;;;4.40;99.90;;;;;;5062200;28;21022;-71
2023/01/18 11:49:45;;;;;;;7.87;5.70;;;4.30;99.90;;;;;;5063520;28;20439;-71
2023/01/18 11:52:22;;;;;;;12.33;6.13;;;4.30;99.90;;;;;;5064009;28;20475;-71
2023/01/18 11:54:53;;;;;;;8.73;6.30;;;4.30;99.90;;;;;;5063215;28;20467;-69
2023/01/18 11:57:20;;;;;;;8.13;5.97;;;4.20;99.90;;;;;;5062721;28;20440;-70
2023/01/18 11:59:48;;;;;;;7.00;5.53;;;4.20;99.90;;;;;;5063415;28;20487;-71
2023/01/18 12:02:54;;;;;;;8.27;6.13;;;4.20;99.90;;;;;;5062726;28;21038;-70
2023/01/18 12:05:43;;;;;;;12.97;7.60;;;4.20;99.90;;;;;;5062860;28;20478;-70
2023/01/18 12:08:23;;;;;;;12.93;5.80;;;4.20;99.90;;;;;;5061773;28;20431;-70
2023/01/18 12:10:58;;;;;;;9.00;5.93;;;4.20;99.90;;;;;;5062692;28;20775;-69
2023/01/18 12:13:47;;;;;;;8.80;6.60;;;4.20;99.90;;;;;;5063231;28;20442;-71
2023/01/18 12:16:19;;;;;;;10.87;6.70;;;4.20;99.90;;;;;;5064351;28;20817;-70
2023/01/18 12:19:20;;;;;;;11.00;6.90;;;4.10;99.90;;;;;;5064763;28;20516;-70
2023/01/18 12:22:05;;;;;;;9.63;6.57;;;4.10;99.90;;;;;;5043331;28;20836;-70
2023/01/18 12:24:52;;;;;;;16.80;8.27;;;4.10;99.90;;;;;;5068583;28;20487;-70
2023/01/18 12:27:29;;;;;;;10.37;6.23;;;4.00;99.90;;;;;;5067086;28;20443;-71
2023/01/18 12:30:23;;;;;;;8.67;6.67;;;4.10;99.90;;;;;;5067952;28;20542;-70
2023/01/18 12:33:07;;;;;;;10.87;7.00;;;4.00;99.90;;;;;;5043487;28;20487;-71
2023/01/18 12:35:46;;;;;;;14.50;6.80;;;4.00;99.90;;;;;;5066776;28;20438;-71
2023/01/18 12:38:18;;;;;;;9.53;6.83;;;4.00;99.90;;;;;;5067433;28;20501;-71
2023/01/18 12:40:59;;;;;;;11.40;8.87;;;4.00;99.90;;;;;;5068708;28;20449;-71
2023/01/18 12:43:40;;;;;;;10.43;7.10;;;4.00;99.90;;;;;;5080281;28;20523;-70
2023/01/18 12:46:14;;;;;;;9.40;5.63;;;4.00;99.90;;;;;;5087817;28;20883;-71
2023/01/18 12:48:48;;;;;;;9.23;4.97;;;4.00;99.90;;;;;;5088344;28;20484;-72
2023/01/18 12:51:24;;;;;;;8.13;5.60;;;4.00;99.90;;;;;;5089150;28;20450;-71
2023/01/18 12:54:01;;;;;;;7.20;5.27;;;4.00;99.90;;;;;;5073200;28;20485;-71
2023/01/18 12:56:36;;;;;;;9.37;5.50;;;3.90;99.90;;;;;;5069156;28;20896;-70
2023/01/18 12:59:06;;;;;;;10.20;5.53;;;3.90;99.90;;;;;;5069898;28;20478;-70
2023/01/18 13:01:44;;;;;;;7.60;5.40;;;3.90;99.90;;;;;;5068993;28;20546;-71
2023/01/18 13:04:18;;;;;;;6.50;4.70;;;3.90;99.90;;;;;;5067933;28;20452;-71
2023/01/18 13:06:47;;;;;;;8.90;5.70;;;3.90;99.90;;;;;;5068794;28;20451;-71
2023/01/18 13:09:21;;;;;;;11.07;8.47;;;3.90;99.90;;;;;;5067520;28;20512;-71
2023/01/18 13:11:50;;;;;;;10.87;7.40;;;3.90;99.90;;;;;;5068147;28;20435;-70
2023/01/18 13:14:28;;;;;;;11.10;9.47;;;3.90;99.90;;;;;;5067009;28;20477;-69
2023/01/18 13:17:00;;;;;;;6.20;5.10;;;3.90;99.90;;;;;;5066254;28;20779;-70
2023/01/18 13:19:37;;;;;;;12.23;5.73;;;3.90;99.90;;;;;;5067259;28;20467;-71
2023/01/18 13:22:14;;;;;;;11.80;5.30;;;3.80;99.90;;;;;;5065335;28;20498;-69
2023/01/18 13:24:59;;;;;;;6.60;4.70;;;3.80;99.90;;;;;;5066301;28;20495;-70
2023/01/18 13:27:27;;;;;;;7.23;4.70;;;3.70;99.90;;;;;;5065427;28;20476;-71
2023/01/18 13:30:09;;;;;;;3.80;3.40;;;3.70;99.90;;;;;;5065755;28;20459;-70
2023/01/18 13:32:48;;;;;;;7.47;4.17;;;3.70;99.90;;;;;;5065204;28;20530;-71
2023/01/18 13:35:22;;;;;;;7.27;4.57;;;3.70;99.90;;;;;;5066045;28;20474;-71
2023/01/18 13:37:54;;;;;;;7.10;5.03;;;3.80;99.90;;;;;;5065104;28;20480;-71
2023/01/18 13:40:30;;;;;;;9.83;4.90;;;3.80;99.90;;;;;;5065970;28;20522;-71